.
WxDataArchive / Data Records for 2014-06-27
2014-06-26 June 2014 2014-06-28

Data Records for Friday, 27 June 2014

Time	Temp	Chill	HIndex	Humid	Dewpt	 Wind 	HiWind	WindDir	Rain 	Barom
-----	----	-----	------	-----	-----	------	------	-------	-----	-----
00:00	69.9	69.9	69.9	85	65.2	0	0	---	0.00	30.012 
00:05	69.8	69.8	69.8	85	65.1	0	0	---	0.00	30.012 
00:10	69.6	69.6	69.6	85	64.9	0	0	---	0.00	30.012 
00:15	69.4	69.4	69.4	86	65.0	0	0	---	0.00	30.015 
00:20	69.3	69.3	69.3	86	64.9	0	0	---	0.00	30.015 
00:25	69.1	69.1	69.1	86	64.7	0	0	---	0.00	30.015 
00:30	68.9	68.9	68.9	87	64.9	0	0	---	0.00	30.023 
00:35	68.8	68.8	68.8	87	64.8	0	0	---	0.00	30.023 
00:40	68.6	68.6	68.6	87	64.6	0	0	---	0.00	30.023 
00:45	68.4	68.4	68.4	88	64.7	0	0	---	0.00	30.023 
00:50	68.3	68.3	68.3	88	64.6	0	0	---	0.00	30.023 
00:55	68.3	68.3	68.3	88	64.6	0	0	---	0.00	30.023 
01:00	68.1	68.1	68.1	88	64.4	0	0	---	0.00	30.027 
01:05	67.9	67.9	67.9	89	64.5	0	0	---	0.00	30.027 
01:10	67.8	67.8	67.8	89	64.4	0	0	---	0.00	30.027 
01:15	67.6	67.6	67.6	89	64.2	0	0	---	0.00	30.023 
01:20	67.4	67.4	67.4	89	64.0	0	0	---	0.00	30.023 
01:25	67.3	67.3	67.3	89	63.9	0	0	---	0.00	30.023 
01:30	67.1	67.1	67.1	89	63.7	0	0	---	0.00	30.022 
01:35	67.1	67.1	67.1	89	63.7	0	0	---	0.00	30.022 
01:40	66.9	66.9	66.9	90	63.9	0	0	---	0.00	30.022 
01:45	66.8	66.8	66.8	90	63.8	0	0	---	0.00	30.024 
01:50	66.8	66.8	66.8	90	63.8	0	0	---	0.00	30.024 
01:55	66.6	66.6	66.6	90	63.6	0	0	---	0.00	30.024 
02:00	66.4	66.4	66.4	90	63.4	0	0	---	0.00	30.019 
02:05	66.3	66.3	66.3	91	63.6	0	0	---	0.00	30.019 
02:10	66.1	66.1	66.1	91	63.4	0	0	---	0.00	30.019 
02:15	66.0	66.0	66.0	91	63.3	0	0	---	0.00	30.018 
02:20	66.0	66.0	66.0	91	63.3	0	0	---	0.00	30.018 
02:25	65.8	65.8	65.8	91	63.1	0	0	---	0.00	30.018 
02:30	65.8	65.8	65.8	91	63.1	0	0	---	0.00	30.016 
02:35	65.6	65.6	65.6	91	62.9	0	0	---	0.00	30.016 
02:40	65.5	65.5	65.5	91	62.8	0	0	---	0.00	30.016 
02:45	65.5	65.5	65.5	92	63.1	0	0	---	0.00	30.014 
02:50	65.5	65.5	65.5	92	63.1	0	0	---	0.00	30.014 
02:55	65.5	65.5	65.5	92	63.1	0	0	---	0.00	30.014 
03:00	65.5	65.5	65.5	92	63.1	0	0	---	0.00	30.011 
03:05	65.5	65.5	65.5	92	63.1	0	0	---	0.00	30.011 
03:10	65.5	65.5	65.5	92	63.1	0	0	---	0.00	30.011 
03:15	65.5	65.5	65.5	93	63.4	0	1	68	0.00	30.009 
03:20	65.6	65.6	65.6	93	63.5	0	0	---	0.00	30.009 
03:25	65.8	65.8	65.8	93	63.7	0	1	68	0.00	30.009 
03:30	65.8	65.8	65.8	93	63.7	0	1	68	0.00	30.010 
03:35	66.0	66.0	66.0	93	63.9	0	1	68	0.00	30.010 
03:40	65.8	65.8	65.8	93	63.7	0	1	68	0.00	30.010 
03:45	65.8	65.8	65.8	93	63.7	0	0	---	0.00	30.010 
03:50	65.6	65.6	65.6	93	63.5	0	0	---	0.00	30.010 
03:55	65.5	65.5	65.5	93	63.4	0	0	---	0.00	30.010 
04:00	65.3	65.3	65.3	93	63.2	0	0	---	0.00	30.009 
04:05	65.3	65.3	65.3	93	63.2	0	0	---	0.00	30.009 
04:10	65.2	65.2	65.2	93	63.1	0	0	---	0.00	30.009 
04:15	65.0	65.0	65.0	93	62.9	0	0	---	0.00	30.011 
04:20	65.0	65.0	65.0	93	62.9	0	0	---	0.00	30.011 
04:25	64.8	64.8	64.8	93	62.7	0	0	---	0.00	30.011 
04:30	64.8	64.8	64.8	93	62.7	0	0	---	0.00	30.014 
04:35	64.8	64.8	64.8	93	62.7	0	0	---	0.00	30.014 
04:40	64.7	64.7	64.7	93	62.6	0	0	---	0.00	30.014 
04:45	64.7	64.7	64.7	94	62.9	0	0	---	0.00	30.016 
04:50	64.7	64.7	64.7	94	62.9	0	0	---	0.00	30.016 
04:55	64.7	64.7	64.7	94	62.9	0	0	---	0.00	30.016 
05:00	64.8	64.8	64.8	94	63.0	0	0	---	0.00	30.021 
05:05	64.7	64.7	64.7	94	62.9	0	0	---	0.00	30.021 
05:10	64.7	64.7	64.7	94	62.9	0	0	---	0.00	30.021 
05:15	64.7	64.7	64.7	94	62.9	0	0	---	0.00	30.020 
05:20	64.5	64.5	64.5	94	62.7	0	0	---	0.00	30.020 
05:25	64.5	64.5	64.5	94	62.7	0	0	---	0.00	30.020 
05:30	64.3	64.3	64.3	94	62.5	0	0	---	0.00	30.026 
05:35	64.2	64.2	64.2	94	62.4	0	0	---	0.00	30.026 
05:40	64.0	64.0	64.0	94	62.2	0	0	---	0.00	30.026 
05:45	63.9	63.9	63.9	94	62.1	0	0	---	0.00	30.027 
05:50	63.9	63.9	63.9	94	62.1	0	0	---	0.00	30.027 
05:55	64.0	64.0	64.0	95	62.5	0	1	68	0.00	30.027 
06:00	64.2	64.2	64.2	95	62.7	0	1	68	0.00	30.028 
06:05	64.2	64.2	64.2	95	62.7	0	2	68	0.00	30.028 
06:10	64.2	64.2	64.2	95	62.7	0	1	68	0.00	30.028 
06:15	64.0	64.0	64.0	95	62.5	0	1	68	0.00	30.030 
06:20	64.0	64.0	64.0	95	62.5	0	0	---	0.00	30.030 
06:25	64.0	64.0	64.0	95	62.5	0	0	---	0.00	30.030 
06:30	64.0	64.0	64.0	95	62.5	0	2	68	0.00	30.031 
06:35	64.2	64.2	64.2	95	62.7	0	2	68	0.00	30.031 
06:40	64.0	64.0	64.0	95	62.5	0	0	---	0.00	30.031 
06:45	64.0	64.0	64.0	95	62.5	0	0	---	0.00	30.038 
06:50	64.2	64.2	64.2	95	62.7	0	0	---	0.00	30.038 
06:55	64.2	64.2	64.2	95	62.7	0	0	---	0.00	30.038 
07:00	64.3	64.3	64.3	95	62.8	0	1	68	0.00	30.035 
07:05	64.5	64.5	64.5	95	63.0	0	2	68	0.00	30.035 
07:10	64.5	64.5	64.5	95	63.0	0	0	---	0.00	30.035 
07:15	64.5	64.5	64.5	95	63.0	0	0	---	0.00	30.045 
07:20	64.7	64.7	64.7	95	63.2	0	1	68	0.00	30.045 
07:25	64.8	64.8	64.8	95	63.3	1	2	68	0.00	30.045 
07:30	65.0	65.0	65.0	95	63.5	0	2	68	0.00	30.046 
07:35	65.3	65.3	65.3	95	63.8	0	2	68	0.00	30.046 
07:40	65.8	65.8	65.8	95	64.3	0	2	68	0.00	30.046 
07:45	66.3	66.3	66.3	94	64.5	1	3	68	0.00	30.048 
07:50	66.4	66.4	66.4	93	64.3	1	4	68	0.00	30.048 
07:55	66.9	66.9	66.9	93	64.8	0	3	68	0.00	30.048 
08:00	66.9	66.9	66.9	92	64.5	1	3	68	0.00	30.052 
08:05	67.3	67.3	67.3	91	64.6	1	4	68	0.00	30.052 
08:10	67.4	67.4	67.4	91	64.7	1	4	68	0.00	30.052 
08:15	68.1	68.1	68.1	90	65.0	0	2	68	0.00	30.054 
08:20	68.6	68.6	68.6	89	65.2	0	3	68	0.00	30.054 
08:25	68.9	68.9	68.9	88	65.2	1	3	68	0.00	30.054 
08:30	69.3	69.3	69.3	88	65.6	1	3	68	0.00	30.057 
08:35	69.6	69.6	69.6	87	65.6	1	3	68	0.00	30.057 
08:40	69.9	69.9	69.9	86	65.5	1	2	68	0.00	30.057 
08:45	70.4	70.4	70.4	85	65.7	1	4	68	0.00	30.056 
08:50	70.8	70.8	70.8	86	66.4	1	3	68	0.00	30.056 
08:55	71.5	71.5	71.5	84	66.4	0	2	68	0.00	30.056 
09:00	71.8	71.8	71.8	83	66.3	1	3	68	0.00	30.058 
09:05	72.0	72.0	72.0	83	66.5	1	3	68	0.00	30.058 
09:10	72.3	72.3	72.3	83	66.8	1	3	68	0.00	30.058 
09:15	72.5	72.5	72.5	82	66.7	0	3	68	0.00	30.062 
09:20	73.0	73.0	73.0	81	66.8	1	4	68	0.00	30.062 
09:25	73.3	73.3	73.3	81	67.1	0	3	68	0.00	30.062 
09:30	73.9	73.9	73.9	79	67.0	1	4	68	0.00	30.064 
09:35	73.9	73.9	73.9	79	67.0	1	4	68	0.00	30.064 
09:40	74.2	74.2	74.2	79	67.3	1	5	68	0.00	30.064 
09:45	74.4	74.4	74.4	79	67.4	2	5	68	0.00	30.066 
09:50	74.6	74.6	74.6	79	67.6	1	3	68	0.00	30.066 
09:55	75.1	75.1	76.1	77	67.4	2	6	90	0.00	30.066 
10:00	75.1	75.1	76.1	77	67.4	2	5	68	0.00	30.066 
10:05	75.4	75.4	76.4	77	67.7	1	4	68	0.00	30.066 
10:10	75.8	75.8	77.0	77	68.1	1	2	68	0.00	30.066 
10:15	76.3	76.3	77.7	76	68.2	1	4	68	0.00	30.071 
10:20	76.8	76.8	78.4	74	67.9	1	4	68	0.00	30.071 
10:25	76.8	76.8	78.4	74	67.9	2	4	68	0.00	30.071 
10:30	76.8	76.8	78.4	75	68.3	1	4	68	0.00	30.070 
10:35	77.4	77.4	79.3	74	68.4	1	5	68	0.00	30.070 
10:40	77.6	77.6	79.5	73	68.2	2	5	90	0.00	30.070 
10:45	77.6	77.6	79.5	73	68.2	1	5	90	0.00	30.070 
10:50	77.7	77.7	79.7	73	68.3	2	7	90	0.00	30.070 
10:55	77.9	77.9	79.9	71	67.7	2	5	90	0.00	30.070 
11:00	78.5	78.5	80.8	72	68.7	1	5	90	0.00	30.070 
11:05	78.5	78.5	80.8	71	68.3	2	5	90	0.00	30.070 
11:10	78.8	78.8	81.1	69	67.7	1	3	90	0.00	30.070 
11:15	79.4	79.4	81.9	69	68.3	1	3	90	0.00	30.069 
11:20	79.6	79.6	82.2	69	68.5	2	4	90	0.00	30.069 
11:25	79.4	79.4	81.9	69	68.3	2	6	90	0.00	30.069 
11:30	79.8	79.8	82.4	68	68.3	1	5	90	0.00	30.064 
11:35	80.5	80.5	83.1	65	67.6	1	3	90	0.00	30.064 
11:40	80.7	80.7	82.9	62	66.4	1	4	90	0.00	30.064 
11:45	80.9	80.9	83.5	64	67.6	2	4	90	0.00	30.062 
11:50	81.1	81.1	83.5	62	66.8	2	5	90	0.00	30.062 
11:55	81.1	81.1	82.9	58	64.9	1	4	90	0.00	30.062 
12:00	81.1	81.1	83.0	59	65.4	2	4	90	0.00	30.060 
12:05	81.6	81.6	83.7	59	65.9	1	3	90	0.00	30.060 
12:10	81.8	81.8	83.5	56	64.5	1	3	90	0.00	30.060 
12:15	81.6	81.6	83.7	59	65.9	2	6	90	0.00	30.056 
12:20	81.8	81.8	84.1	60	66.5	1	4	90	0.00	30.056 
12:25	82.0	82.0	83.9	57	65.2	2	5	90	0.00	30.056 
12:30	82.2	82.2	83.8	55	64.4	1	4	68	0.00	30.056 
12:35	82.8	82.8	85.0	57	66.0	1	3	112	0.00	30.056 
12:40	83.0	83.0	85.5	58	66.7	2	6	90	0.00	30.056 
12:45	83.2	83.2	85.1	55	65.3	1	3	90	0.00	30.052 
12:50	83.4	83.4	85.6	56	66.0	1	4	90	0.00	30.052 
12:55	83.2	83.2	84.9	54	64.8	2	4	112	0.00	30.052 
13:00	83.2	83.2	85.1	55	65.3	1	3	112	0.00	30.048 
13:05	83.2	83.2	84.7	53	64.3	2	4	112	0.00	30.048 
13:10	83.0	83.0	84.9	55	65.1	1	4	90	0.00	30.048 
13:15	82.8	82.8	84.4	54	64.4	1	3	90	0.00	30.047 
13:20	83.0	83.0	84.7	54	64.6	2	6	90	0.00	30.047 
13:25	82.4	82.4	84.2	56	65.1	2	4	90	0.00	30.047 
13:30	82.2	82.2	84.3	58	65.9	1	5	90	0.00	30.047 
13:35	82.8	82.8	84.2	53	63.9	1	2	90	0.00	30.047 
13:40	83.4	83.4	85.0	53	64.4	1	2	90	0.00	30.047 
13:45	83.6	83.6	84.6	50	63.0	1	3	90	0.00	30.048 
13:50	83.8	83.8	85.7	54	65.3	1	4	90	0.00	30.048 
13:55	83.4	83.4	85.4	55	65.5	2	9	90	0.00	30.048 
14:00	83.8	83.8	85.5	53	64.8	1	3	90	0.00	30.041 
14:05	83.8	83.8	85.5	53	64.8	2	4	90	0.00	30.041 
14:10	84.0	84.0	85.8	53	65.0	0	2	90	0.00	30.041 
14:15	83.8	83.8	85.1	51	63.7	1	3	90	0.00	30.040 
14:20	83.4	83.4	85.2	54	65.0	1	3	90	0.00	30.040 
14:25	83.4	83.4	85.4	55	65.5	2	6	90	0.00	30.040 
14:30	83.6	83.6	85.2	53	64.6	2	5	90	0.00	30.037 
14:35	83.8	83.8	85.3	52	64.3	2	7	90	0.00	30.037 
14:40	83.8	83.8	85.5	53	64.8	3	9	90	0.00	30.037 
14:45	83.4	83.4	84.6	51	63.3	1	4	90	0.00	30.032 
14:50	83.0	83.0	84.7	54	64.6	1	5	90	0.00	30.032 
14:55	83.0	83.0	84.7	54	64.6	0	1	90	0.00	30.032 
15:00	83.6	83.6	85.5	54	65.2	0	2	90	0.00	30.029 
15:05	84.1	84.1	85.9	53	65.1	1	5	90	0.00	30.029 
15:10	84.7	84.7	86.3	51	64.5	1	3	90	0.00	30.029 
15:15	85.3	85.3	86.9	50	64.5	1	3	90	0.00	30.026 
15:20	85.5	85.5	87.4	51	65.3	1	5	90	0.00	30.026 
15:25	85.5	85.5	87.2	50	64.7	1	6	90	0.00	30.026 
15:30	85.3	85.3	87.1	51	65.1	2	6	90	0.00	30.027 
15:35	85.1	85.1	87.1	52	65.5	1	4	90	0.00	30.027 
15:40	84.7	84.7	86.3	51	64.5	2	4	90	0.00	30.027 
15:45	84.9	84.9	86.8	52	65.3	1	3	90	0.00	30.025 
15:50	84.9	84.9	86.8	52	65.3	1	4	90	0.00	30.025 
15:55	85.1	85.1	87.1	52	65.5	1	4	90	0.00	30.025 
16:00	85.1	85.1	87.1	52	65.5	3	6	90	0.00	30.025 
16:05	85.3	85.3	87.4	52	65.6	1	3	90	0.00	30.025 
16:10	85.7	85.7	87.7	51	65.5	1	4	112	0.00	30.025 
16:15	86.1	86.1	88.0	50	65.3	1	2	90	0.00	30.024 
16:20	85.5	85.5	86.9	49	64.1	1	4	90	0.00	30.024 
16:25	85.1	85.1	86.4	49	63.8	2	5	68	0.00	30.024 
16:30	84.9	84.9	86.6	51	64.7	2	6	90	0.00	30.023 
16:35	84.9	84.9	86.8	52	65.3	1	5	90	0.00	30.023 
16:40	85.1	85.1	86.9	51	64.9	1	4	90	0.00	30.023 
16:45	85.3	85.3	87.1	51	65.1	1	5	90	0.00	30.023 
16:50	85.5	85.5	87.4	51	65.3	2	5	90	0.00	30.023 
16:55	85.5	85.5	86.9	49	64.1	1	4	68	0.00	30.023 
17:00	85.7	85.7	87.2	49	64.3	1	3	90	0.00	30.022 
17:05	86.1	86.1	88.0	50	65.3	1	4	90	0.00	30.022 
17:10	85.9	85.9	87.5	49	64.5	1	4	68	0.00	30.022 
17:15	85.9	85.9	88.0	51	65.6	1	3	68	0.00	30.020 
17:20	85.9	85.9	86.9	47	63.3	0	3	68	0.00	30.020 
17:25	85.9	85.9	87.2	48	63.9	0	3	68	0.00	30.020 
17:30	85.5	85.5	87.2	50	64.7	2	4	68	0.00	30.010 
17:35	85.3	85.3	86.6	49	63.9	1	6	90	0.00	30.010 
17:40	84.7	84.7	85.8	49	63.4	1	5	90	0.00	30.010 
17:45	84.5	84.5	86.0	51	64.4	1	3	90	0.00	30.011 
17:50	84.5	84.5	85.6	49	63.2	1	3	90	0.00	30.011 
17:55	84.7	84.7	86.0	50	64.0	1	4	90	0.00	30.011 
18:00	84.3	84.3	85.3	49	63.0	2	4	68	0.00	30.010 
18:05	84.3	84.3	85.5	50	63.6	2	7	90	0.00	30.010 
18:10	84.1	84.1	85.3	50	63.4	2	7	90	0.00	30.010 
18:15	84.0	84.0	85.6	52	64.4	1	5	90	0.00	30.008 
18:20	83.8	83.8	85.1	51	63.7	2	6	90	0.00	30.008 
18:25	83.8	83.8	85.3	52	64.3	1	3	90	0.00	30.008 
18:30	83.6	83.6	84.8	51	63.5	2	5	90	0.00	30.007 
18:35	83.4	83.4	84.6	51	63.3	2	5	90	0.00	30.007 
18:40	83.4	83.4	84.4	50	62.8	1	6	90	0.00	30.007 
18:45	83.4	83.4	84.6	51	63.3	2	4	68	0.00	30.006 
18:50	83.2	83.2	84.3	51	63.2	2	5	90	0.00	30.006 
18:55	83.2	83.2	84.7	53	64.3	1	3	90	0.00	30.006 
19:00	83.0	83.0	84.1	51	63.0	2	6	90	0.00	30.005 
19:05	82.8	82.8	83.8	51	62.8	2	4	68	0.00	30.005 
19:10	82.8	82.8	84.0	52	63.3	2	5	68	0.00	30.005 
19:15	82.6	82.6	83.8	52	63.2	1	3	68	0.00	30.008 
19:20	82.6	82.6	84.0	53	63.7	0	4	90	0.00	30.008 
19:25	82.6	82.6	84.0	53	63.7	1	4	90	0.00	30.008 
19:30	82.6	82.6	84.0	53	63.7	1	3	68	0.00	30.009 
19:35	82.4	82.4	83.7	53	63.5	1	3	68	0.00	30.009 
19:40	82.2	82.2	83.6	54	63.9	1	4	68	0.00	30.009 
19:45	82.0	82.0	83.6	55	64.2	1	4	68	0.00	30.009 
19:50	81.8	81.8	83.3	55	64.0	1	4	68	0.00	30.009 
19:55	81.8	81.8	83.3	55	64.0	1	4	90	0.00	30.009 
20:00	81.6	81.6	83.1	55	63.8	1	5	90	0.00	30.009 
20:05	81.6	81.6	83.1	55	63.8	1	4	68	0.00	30.009 
20:10	81.4	81.4	83.0	56	64.2	0	2	68	0.00	30.009 
20:15	81.2	81.2	82.7	56	64.0	1	3	68	0.00	30.004 
20:20	81.1	81.1	82.6	56	63.9	1	5	68	0.00	30.004 
20:25	81.1	81.1	82.8	57	64.4	0	2	68	0.00	30.004 
20:30	80.9	80.9	82.5	57	64.2	0	2	68	0.00	30.007 
20:35	80.7	80.7	82.3	57	64.0	0	2	68	0.00	30.007 
20:40	80.5	80.5	82.2	58	64.3	0	1	68	0.00	30.007 
20:45	80.1	80.1	81.7	58	64.0	0	1	68	0.00	30.007 
20:50	79.9	79.9	81.6	59	64.3	0	2	68	0.00	30.007 
20:55	79.8	79.8	81.5	59	64.2	0	3	68	0.00	30.007 
21:00	79.6	79.6	81.3	60	64.5	0	2	68	0.00	30.009 
21:05	79.4	79.4	81.1	60	64.3	0	2	68	0.00	30.009 
21:10	79.2	79.2	81.0	61	64.6	0	2	68	0.00	30.009 
21:15	79.0	79.0	80.8	61	64.4	0	2	68	0.00	30.005 
21:20	78.6	78.6	80.4	62	64.5	0	2	68	0.00	30.005 
21:25	78.5	78.5	80.3	63	64.8	0	2	68	0.00	30.005 
21:30	78.3	78.3	80.2	64	65.1	0	1	68	0.00	30.007 
21:35	78.1	78.1	79.9	64	64.9	0	1	68	0.00	30.007 
21:40	77.9	77.9	79.7	65	65.2	0	1	68	0.00	30.007 
21:45	77.7	77.7	79.5	65	65.0	0	0	---	0.00	30.011 
21:50	77.4	77.4	79.2	66	65.1	0	0	---	0.00	30.011 
21:55	77.2	77.2	79.0	67	65.4	0	1	68	0.00	30.011 
22:00	76.8	76.8	78.6	69	65.8	0	1	68	0.00	30.014 
22:05	76.7	76.7	78.4	69	65.7	0	1	68	0.00	30.014 
22:10	76.3	76.3	77.9	71	66.2	0	1	68	0.00	30.014 
22:15	76.1	76.1	77.7	71	66.0	0	1	68	0.00	30.019 
22:20	75.8	75.8	77.4	71	65.7	0	1	68	0.00	30.019 
22:25	75.6	75.6	77.2	71	65.5	0	2	68	0.00	30.019 
22:30	75.6	75.6	77.1	72	65.9	0	1	68	0.00	30.021 
22:35	75.4	75.4	76.9	72	65.7	0	2	68	0.00	30.021 
22:40	75.3	75.3	76.7	73	66.0	0	1	68	0.00	30.021 
22:45	75.1	75.1	76.5	73	65.8	0	1	68	0.00	30.024 
22:50	74.9	74.9	74.9	74	66.0	0	1	68	0.00	30.024 
22:55	74.7	74.7	74.7	75	66.2	0	1	68	0.00	30.024 
23:00	74.6	74.6	74.6	75	66.1	0	1	68	0.00	30.025 
23:05	74.4	74.4	74.4	75	65.9	0	0	---	0.00	30.025 
23:10	74.2	74.2	74.2	76	66.1	0	0	---	0.00	30.025 
23:15	74.0	74.0	74.0	76	65.9	0	1	68	0.00	30.029 
23:20	73.9	73.9	73.9	76	65.8	0	2	68	0.00	30.029 
23:25	73.9	73.9	73.9	75	65.5	0	2	68	0.00	30.029 
23:30	73.9	73.9	73.9	75	65.5	0	1	68	0.00	30.028 
23:35	73.7	73.7	73.7	75	65.3	0	2	68	0.00	30.028 
23:40	73.7	73.7	73.7	75	65.3	0	2	68	0.00	30.028 
23:45	73.7	73.7	73.7	75	65.3	0	2	68	0.00	30.023 
23:50	73.5	73.5	73.5	76	65.5	0	2	68	0.00	30.023 
23:55	73.3	73.3	73.3	76	65.3	0	2	68	0.00	30.023 

CoCoRaHS
IN-AL-39
A2 Web Hosting
Creative Commons License
GoDaddy
search engine by freefind advanced

loaded 2018-11-16 00:17:39 • last modified 2010-11-18 10:43:29
Privacy PolicyDisclaimer
• wx.awcolley.com is powered by PmWiki v.2002016 •
• all content (unless otherwise noted) © 2018 A W Colley